createdAt,value
2019-04-10T00:02:13.337Z,91.80
2019-04-10T00:08:15.733Z,92.10
2019-04-10T00:14:18.738Z,92.20
2019-04-10T00:20:22.496Z,92.40
2019-04-10T00:29:54.408Z,91.50
2019-04-10T00:32:30.091Z,91.60
2019-04-10T00:38:33.747Z,91.40
2019-04-10T00:44:35.741Z,91.60
2019-04-10T00:47:10.865Z,91.80
2019-04-10T00:49:46.988Z,91.80
2019-04-10T00:52:22.233Z,91.90
2019-04-10T00:54:58.087Z,92.00
2019-04-10T00:57:33.862Z,92.10
2019-04-10T01:00:12.815Z,92.20
2019-04-10T01:02:47.748Z,92.10
2019-04-10T01:09:04.705Z,91.70
2019-04-10T01:15:20.450Z,91.60
2019-04-10T01:17:58.948Z,91.60
2019-04-10T01:24:01.454Z,91.70
2019-04-10T01:30:04.333Z,91.60
2019-04-10T01:36:08.859Z,91.50
2019-04-10T01:38:44.229Z,91.50
2019-04-10T01:41:19.485Z,91.60
2019-04-10T01:47:21.963Z,91.70
2019-04-10T01:53:14.484Z,91.40
2019-04-10T01:59:19.172Z,91.30
2019-04-10T02:04:29.239Z,91.30
2019-04-10T02:10:45.254Z,91.30
2019-04-10T02:17:04.187Z,91.00
2019-04-10T02:23:07.240Z,90.90
2019-04-10T02:25:43.181Z,90.90
2019-04-10T02:28:18.616Z,91.10
2019-04-10T02:34:21.293Z,91.00
2019-04-10T02:40:15.048Z,90.80
2019-04-10T02:46:31.368Z,91.00
2019-04-10T02:49:08.775Z,90.90
2019-04-10T02:51:45.308Z,90.80
2019-04-10T02:54:21.201Z,90.90
2019-04-10T02:56:57.591Z,91.10
2019-04-10T02:59:31.062Z,91.20
2019-04-10T03:02:06.454Z,91.30
2019-04-10T03:08:39.595Z,91.60
2019-04-10T03:14:39.294Z,91.80
2019-04-10T03:17:15.982Z,92.30
2019-04-10T03:19:51.941Z,92.00
2019-04-10T03:26:08.055Z,92.00
2019-04-10T03:28:44.315Z,92.00
2019-04-10T03:31:22.425Z,92.00
2019-04-10T03:37:39.048Z,92.30
2019-04-10T03:40:15.351Z,92.00
2019-04-10T03:42:49.774Z,91.90
2019-04-10T03:45:25.397Z,92.20
2019-04-10T03:48:02.009Z,92.50
2019-04-10T03:50:38.106Z,92.40
2019-04-10T03:53:14.043Z,92.40
2019-04-10T03:55:49.411Z,92.30
2019-04-10T03:58:25.153Z,92.20
2019-04-10T04:01:00.822Z,92.00
2019-04-10T04:03:35.321Z,91.90
2019-04-10T04:06:09.785Z,92.00
2019-04-10T04:08:45.811Z,92.20
2019-04-10T04:11:23.663Z,92.20
2019-04-10T04:14:00.374Z,92.20
2019-04-10T04:16:37.453Z,92.00
2019-04-10T04:19:12.076Z,91.80
2019-04-10T04:21:48.159Z,91.80
2019-04-10T04:24:26.785Z,91.90
2019-04-10T04:27:02.769Z,92.00
2019-04-10T04:29:37.340Z,92.20
2019-04-10T04:32:14.213Z,92.40
2019-04-10T04:34:52.153Z,92.70
2019-04-10T04:37:28.816Z,92.60
2019-04-10T04:40:05.474Z,92.40
2019-04-10T04:42:42.453Z,92.30
2019-04-10T04:45:19.497Z,92.00
2019-04-10T04:47:57.603Z,92.00
2019-04-10T04:50:34.108Z,92.30
2019-04-10T04:53:11.068Z,91.80
2019-04-10T04:55:46.996Z,91.80
2019-04-10T04:58:22.807Z,91.90
2019-04-10T05:00:58.645Z,92.20
2019-04-10T05:03:32.019Z,91.80
2019-04-10T05:06:08.043Z,91.60
2019-04-10T05:08:43.811Z,91.80
2019-04-10T05:11:20.324Z,91.40
2019-04-10T05:14:00.347Z,91.50
2019-04-10T05:16:37.017Z,91.60
2019-04-10T05:19:14.271Z,91.70
2019-04-10T05:21:49.847Z,91.70
2019-04-10T05:24:25.834Z,91.90
2019-04-10T05:27:01.201Z,91.80
2019-04-10T05:29:45.037Z,91.70
2019-04-10T05:32:21.815Z,91.40
2019-04-10T05:38:43.976Z,91.20
2019-04-10T05:44:04.503Z,91.20
2019-04-10T05:46:34.301Z,91.30
2019-04-10T05:49:04.447Z,91.20
2019-04-10T05:51:34.649Z,91.20
2019-04-10T05:54:04.739Z,90.90
2019-04-10T05:56:38.422Z,90.70
2019-04-10T05:59:10.789Z,90.70
2019-04-10T06:01:41.704Z,90.70
2019-04-10T06:04:15.201Z,90.60
2019-04-10T06:06:44.794Z,90.50
2019-04-10T06:09:14.679Z,90.30
2019-04-10T06:11:45.783Z,90.20
2019-04-10T06:14:26.184Z,90.40
2019-04-10T06:17:20.723Z,90.30
2019-04-10T06:19:41.105Z,90.40
2019-04-10T06:22:12.760Z,90.40
2019-04-10T06:24:42.507Z,90.30
2019-04-10T06:27:12.325Z,90.40
2019-04-10T06:29:43.424Z,90.40
2019-04-10T06:32:23.565Z,90.40
2019-04-10T06:34:53.273Z,90.40
2019-04-10T06:37:28.858Z,90.60
2019-04-10T06:40:07.700Z,90.70
2019-04-10T06:42:29.822Z,90.80
2019-04-10T06:45:00.571Z,90.90
2019-04-10T06:51:02.058Z,91.00
2019-04-10T06:57:46.018Z,90.30
2019-04-10T07:00:45.647Z,89.80
2019-04-10T07:03:14.992Z,90.30
2019-04-10T07:05:59.574Z,90.30
2019-04-10T07:08:19.002Z,90.40
2019-04-10T07:10:57.711Z,90.60
2019-04-10T07:13:22.091Z,90.80
2019-04-10T07:15:57.487Z,90.70
2019-04-10T07:18:26.408Z,90.40
2019-04-10T07:21:01.686Z,90.10
2019-04-10T07:23:32.384Z,90.10
2019-04-10T07:26:10.853Z,89.90
2019-04-10T07:28:47.149Z,89.70
2019-04-10T07:31:15.849Z,89.70
2019-04-10T07:33:50.094Z,89.30
2019-04-10T07:36:18.206Z,89.20
2019-04-10T07:38:48.905Z,89.70
2019-04-10T07:41:21.899Z,90.20
2019-04-10T07:43:53.870Z,90.00
2019-04-10T07:46:40.923Z,90.10
2019-04-10T07:49:19.056Z,90.20
2019-04-10T07:52:08.434Z,90.30
2019-04-10T07:54:38.715Z,90.30
2019-04-10T07:57:09.951Z,90.10
2019-04-10T07:59:46.435Z,90.00
2019-04-10T08:02:25.702Z,90.10
2019-04-10T08:05:02.412Z,89.90
2019-04-10T08:07:35.751Z,89.80
2019-04-10T08:10:05.557Z,89.80
2019-04-10T08:12:47.375Z,89.30
2019-04-10T08:15:33.833Z,89.40
2019-04-10T08:18:04.489Z,89.80
2019-04-10T08:20:49.240Z,90.10
2019-04-10T08:23:51.467Z,90.10
2019-04-10T08:26:25.428Z,90.00
2019-04-10T08:29:00.222Z,89.70
2019-04-10T08:32:05.608Z,89.60
2019-04-10T08:34:40.045Z,89.70
2019-04-10T08:37:17.236Z,90.10
2019-04-10T08:39:49.212Z,90.00
2019-04-10T08:42:24.283Z,90.10
2019-04-10T08:44:54.229Z,90.00
2019-04-10T08:47:24.817Z,90.10
2019-04-10T08:50:13.946Z,90.00
2019-04-10T08:53:34.013Z,90.40
2019-04-10T08:56:06.494Z,90.60
2019-04-10T08:58:39.266Z,90.70
2019-04-10T09:01:15.848Z,91.00
2019-04-10T09:03:48.854Z,90.70
2019-04-10T09:06:39.793Z,90.90
2019-04-10T09:09:10.698Z,91.00
2019-04-10T09:11:40.992Z,91.70
2019-04-10T09:14:17.058Z,91.80
2019-04-10T09:16:51.133Z,91.90
2019-04-10T09:19:22.159Z,91.80
2019-04-10T09:21:52.103Z,91.70
2019-04-10T09:24:23.667Z,91.90
2019-04-10T09:26:57.118Z,91.70
2019-04-10T09:29:32.051Z,91.60
2019-04-10T09:32:02.167Z,90.80
2019-04-10T09:34:35.904Z,90.80
2019-04-10T09:37:34.490Z,91.00
2019-04-10T09:40:09.948Z,90.80
2019-04-10T09:42:42.078Z,90.40
2019-04-10T09:45:15.785Z,90.70
2019-04-10T09:47:55.787Z,90.90
2019-04-10T09:50:31.022Z,91.00
2019-04-10T09:53:02.115Z,90.90
2019-04-10T09:55:31.990Z,90.60
2019-04-10T09:58:03.458Z,90.40
2019-04-10T10:00:36.877Z,90.70
2019-04-10T10:03:15.840Z,90.40
2019-04-10T10:06:09.049Z,90.30
2019-04-10T10:08:45.572Z,90.80
2019-04-10T10:11:17.984Z,90.90
2019-04-10T10:13:48.264Z,91.40
2019-04-10T10:18:47.768Z,90.00
2019-04-10T10:21:20.731Z,89.60
2019-04-10T10:23:50.363Z,89.60
2019-04-10T10:26:19.912Z,88.80
2019-04-10T10:28:49.553Z,89.90
2019-04-10T10:31:22.321Z,88.40
2019-04-10T10:33:55.003Z,87.70
2019-04-10T10:36:36.861Z,87.20
2019-04-10T10:39:13.025Z,88.20
2019-04-10T10:41:44.727Z,86.70
2019-04-10T10:44:17.934Z,87.10
2019-04-10T10:46:52.670Z,87.40
2019-04-10T10:49:22.667Z,86.40
2019-04-10T10:51:53.581Z,86.70
2019-04-10T10:54:23.232Z,87.00
2019-04-10T10:56:58.604Z,86.70
2019-04-10T10:59:29.285Z,84.90
2019-04-10T11:02:04.888Z,84.20
2019-04-10T11:04:35.473Z,84.60
2019-04-10T11:07:18.886Z,85.40
2019-04-10T11:09:48.680Z,85.60
2019-04-10T11:12:21.982Z,85.20
2019-04-10T11:14:56.184Z,84.60
2019-04-10T11:17:28.203Z,85.10
2019-04-10T11:19:59.479Z,84.40
2019-04-10T11:22:35.555Z,84.10
2019-04-10T11:25:12.131Z,82.70
2019-04-10T11:27:42.172Z,83.10
2019-04-10T11:30:13.282Z,82.60
2019-04-10T11:32:48.743Z,83.40
2019-04-10T11:35:19.183Z,83.30
2019-04-10T11:37:53.608Z,83.30
2019-04-10T11:40:23.555Z,83.40
2019-04-10T11:42:54.214Z,83.50
2019-04-10T11:45:29.758Z,82.70
2019-04-10T11:48:02.268Z,83.30
2019-04-10T11:50:32.204Z,83.70
2019-04-10T11:53:02.732Z,83.00
2019-04-10T11:55:42.628Z,82.50
2019-04-10T11:58:05.572Z,81.50
2019-04-10T12:00:50.729Z,82.30
2019-04-10T12:03:34.519Z,82.30
2019-04-10T12:06:11.475Z,83.00
2019-04-10T12:11:17.073Z,81.40
2019-04-10T12:13:50.598Z,81.30
2019-04-10T12:16:25.183Z,80.70
2019-04-10T12:18:55.067Z,81.00
2019-04-10T12:21:26.279Z,81.00
2019-04-10T12:23:56.993Z,80.80
2019-04-10T12:26:32.440Z,81.30
2019-04-10T12:29:02.567Z,80.50
2019-04-10T12:31:36.490Z,80.00
2019-04-10T12:34:06.655Z,79.70
2019-04-10T12:36:36.461Z,79.50
2019-04-10T12:39:12.098Z,79.10
2019-04-10T12:41:47.820Z,78.50
2019-04-10T12:44:19.292Z,79.60
2019-04-10T12:46:53.281Z,79.70
2019-04-10T12:49:43.470Z,79.40
2019-04-10T12:52:14.286Z,78.40
2019-04-10T12:54:45.653Z,78.20
2019-04-10T12:57:21.030Z,78.80
2019-04-10T13:00:00.690Z,78.70
2019-04-10T13:02:32.309Z,79.30
2019-04-10T13:05:13.293Z,79.20
2019-04-10T13:07:45.589Z,79.20
2019-04-10T13:10:14.984Z,79.50
2019-04-10T13:12:45.237Z,80.00
2019-04-10T13:15:17.103Z,80.10
2019-04-10T13:17:46.969Z,80.20
2019-04-10T13:20:18.484Z,80.10
2019-04-10T13:22:48.545Z,80.60
2019-04-10T13:25:18.530Z,81.40
2019-04-10T13:27:48.121Z,82.10
2019-04-10T13:30:20.714Z,82.20
2019-04-10T13:32:53.218Z,82.20
2019-04-10T13:35:24.065Z,82.10
2019-04-10T13:37:56.919Z,82.20
2019-04-10T13:40:29.835Z,82.30
2019-04-10T13:42:59.438Z,82.50
2019-04-10T13:45:31.459Z,82.50
2019-04-10T13:48:01.120Z,82.40
2019-04-10T13:50:30.774Z,82.90
2019-04-10T13:53:03.960Z,82.80
2019-04-10T13:55:36.723Z,82.90
2019-04-10T13:58:11.384Z,83.50
2019-04-10T14:00:42.970Z,84.10
2019-04-10T14:03:14.202Z,83.90
2019-04-10T14:05:43.875Z,83.80
2019-04-10T14:08:14.699Z,83.90
2019-04-10T14:10:44.580Z,83.90
2019-04-10T14:13:17.810Z,84.10
2019-04-10T14:15:48.560Z,84.10
2019-04-10T14:18:18.594Z,84.40
2019-04-10T14:20:48.526Z,83.90
2019-04-10T14:23:28.640Z,84.00
2019-04-10T14:26:41.945Z,84.30
2019-04-10T14:29:09.320Z,84.00
2019-04-10T14:31:42.674Z,83.90
2019-04-10T14:34:14.489Z,83.60
2019-04-10T14:36:44.353Z,83.50
2019-04-10T14:39:24.768Z,83.50
2019-04-10T14:41:55.613Z,83.80
2019-04-10T14:44:25.505Z,84.00
2019-04-10T14:47:00.228Z,84.00
2019-04-10T14:49:31.255Z,84.10
2019-04-10T14:52:05.530Z,84.20
2019-04-10T14:54:35.719Z,84.20
2019-04-10T14:57:06.412Z,84.50
2019-04-10T14:59:38.193Z,84.30
2019-04-10T15:02:10.662Z,84.30
2019-04-10T15:04:41.394Z,84.40
2019-04-10T15:07:12.995Z,84.00
2019-04-10T15:09:42.604Z,83.60
2019-04-10T15:12:12.311Z,83.90
2019-04-10T15:14:42.049Z,83.40
2019-04-10T15:17:19.096Z,83.20
2019-04-10T15:19:52.182Z,83.40
2019-04-10T15:22:21.875Z,83.30
2019-04-10T15:24:52.338Z,83.70
2019-04-10T15:27:23.126Z,83.60
2019-04-10T15:29:53.004Z,83.60
2019-04-10T15:32:22.593Z,83.80
2019-04-10T15:34:56.844Z,83.80
2019-04-10T15:37:26.402Z,83.90
2019-04-10T15:39:58.086Z,84.30
2019-04-10T15:42:28.595Z,83.90
2019-04-10T15:44:58.704Z,84.10
2019-04-10T15:47:29.074Z,84.40
2019-04-10T15:49:59.957Z,84.50
2019-04-10T15:52:29.687Z,84.50
2019-04-10T15:55:01.562Z,84.40
2019-04-10T15:57:44.428Z,84.20
2019-04-10T16:00:03.157Z,84.30
2019-04-10T16:02:32.937Z,84.50
2019-04-10T16:05:04.766Z,84.90
2019-04-10T16:07:34.369Z,85.50
2019-04-10T16:10:21.022Z,85.80
2019-04-10T16:12:57.541Z,86.20
2019-04-10T16:15:27.719Z,86.50
2019-04-10T16:18:12.042Z,86.70
2019-04-10T16:20:43.206Z,86.80
2019-04-10T16:23:33.500Z,86.70
2019-04-10T16:26:04.916Z,87.10
2019-04-10T16:28:37.520Z,87.20
2019-04-10T16:31:07.547Z,87.10
2019-04-10T16:33:39.065Z,87.00
2019-04-10T16:36:08.609Z,86.90
2019-04-10T16:38:38.619Z,87.40
2019-04-10T16:41:08.513Z,87.40
2019-04-10T16:43:47.320Z,87.50
2019-04-10T16:46:20.326Z,87.90
2019-04-10T16:48:52.631Z,88.20
2019-04-10T16:51:22.365Z,88.40
2019-04-10T16:53:52.042Z,88.60
2019-04-10T16:56:25.435Z,89.30
2019-04-10T16:58:56.258Z,89.30
2019-04-10T17:01:26.798Z,89.60
2019-04-10T17:03:58.617Z,89.40
2019-04-10T17:06:32.478Z,89.40
2019-04-10T17:09:05.621Z,90.20
2019-04-10T17:11:35.275Z,90.30
2019-04-10T17:14:07.128Z,90.50
2019-04-10T17:16:37.778Z,91.20
2019-04-10T17:19:09.744Z,91.30
2019-04-10T17:21:41.022Z,91.30
2019-04-10T17:24:11.270Z,91.20
2019-04-10T17:26:41.268Z,90.90
2019-04-10T17:29:14.760Z,90.50
2019-04-10T17:31:44.579Z,90.60
2019-04-10T17:34:18.634Z,90.50
2019-04-10T17:36:49.502Z,90.50
2019-04-10T17:39:22.859Z,90.50
2019-04-10T17:41:55.755Z,91.10
2019-04-10T17:44:25.691Z,90.60
2019-04-10T17:46:55.641Z,89.80
2019-04-10T17:49:25.673Z,89.90
2019-04-10T17:51:56.494Z,89.40
2019-04-10T17:54:28.534Z,89.60
2019-04-10T17:56:59.986Z,89.70
2019-04-10T17:59:30.326Z,90.10
2019-04-10T18:02:02.489Z,89.90
2019-04-10T18:04:34.187Z,89.80
2019-04-10T18:07:05.882Z,89.40
2019-04-10T18:09:36.736Z,89.40
2019-04-10T18:12:08.019Z,89.40
2019-04-10T18:14:40.695Z,89.10
2019-04-10T18:17:14.486Z,89.00
2019-04-10T18:19:47.228Z,89.70
2019-04-10T18:22:16.969Z,89.20
2019-04-10T18:24:48.086Z,88.90
2019-04-10T18:27:18.423Z,88.60
2019-04-10T18:29:48.123Z,88.70
2019-04-10T18:32:37.986Z,88.40
2019-04-10T18:35:09.495Z,88.70
2019-04-10T18:37:39.222Z,88.80
2019-04-10T18:40:09.160Z,89.40
2019-04-10T18:42:41.665Z,89.40
2019-04-10T18:45:13.391Z,89.60
2019-04-10T18:47:44.064Z,89.60
2019-04-10T18:50:14.340Z,89.60
2019-04-10T18:52:46.161Z,89.40
2019-04-10T18:55:18.384Z,89.50
2019-04-10T18:57:48.013Z,89.50
2019-04-10T19:00:46.267Z,89.50
2019-04-10T19:03:28.012Z,89.40
2019-04-10T19:06:02.473Z,89.20
2019-04-10T19:08:33.416Z,89.30
2019-04-10T19:11:15.335Z,89.10
2019-04-10T19:13:36.175Z,89.00
2019-04-10T19:16:07.438Z,88.70
2019-04-10T19:18:40.091Z,88.80
2019-04-10T19:21:09.915Z,88.80
2019-04-10T19:23:45.683Z,88.90
2019-04-10T19:26:20.980Z,88.80
2019-04-10T19:28:53.201Z,88.90
2019-04-10T19:31:24.662Z,88.60
2019-04-10T19:33:55.143Z,88.40
2019-04-10T19:36:25.856Z,88.70
2019-04-10T19:38:57.887Z,89.00
2019-04-10T19:41:31.961Z,89.00
2019-04-10T19:44:02.461Z,89.00
2019-04-10T19:46:33.394Z,89.30
2019-04-10T19:49:08.158Z,89.30
2019-04-10T19:51:36.755Z,89.20
2019-04-10T19:54:07.886Z,88.40
2019-04-10T19:56:37.758Z,88.70
2019-04-10T19:59:08.393Z,88.70
2019-04-10T20:01:38.194Z,88.70
2019-04-10T20:04:08.285Z,88.50
2019-04-10T20:06:40.713Z,88.60
2019-04-10T20:09:10.777Z,88.70
2019-04-10T20:11:45.302Z,88.60
2019-04-10T20:14:18.617Z,88.60
2019-04-10T20:16:49.272Z,88.80
2019-04-10T20:19:19.328Z,88.80
2019-04-10T20:21:50.675Z,88.70
2019-04-10T20:24:21.395Z,88.80
2019-04-10T20:26:53.890Z,89.00
2019-04-10T20:29:23.644Z,89.20
2019-04-10T20:31:55.357Z,89.40
2019-04-10T20:34:27.698Z,89.30
2019-04-10T20:37:00.946Z,89.60
2019-04-10T20:39:29.556Z,89.70
2019-04-10T20:42:02.399Z,90.00
2019-04-10T20:44:30.704Z,90.00
2019-04-10T20:47:06.722Z,90.20
2019-04-10T20:49:42.542Z,90.30
2019-04-10T20:52:14.608Z,90.00
2019-04-10T20:54:44.784Z,90.00
2019-04-10T20:57:15.090Z,90.30
2019-04-10T20:59:44.760Z,90.20
2019-04-10T21:02:18.119Z,90.40
2019-04-10T21:04:57.440Z,90.60
2019-04-10T21:07:25.584Z,90.80
2019-04-10T21:09:54.759Z,91.20
2019-04-10T21:12:29.993Z,91.30
2019-04-10T21:14:59.649Z,91.30
2019-04-10T21:17:32.142Z,91.50
2019-04-10T21:20:03.451Z,91.70
2019-04-10T21:22:33.445Z,91.50
2019-04-10T21:25:08.222Z,91.90
2019-04-10T21:27:37.973Z,92.00
2019-04-10T21:30:29.836Z,91.90
2019-04-10T21:33:21.152Z,92.00
2019-04-10T21:35:54.863Z,92.10
2019-04-10T21:38:25.648Z,92.30
2019-04-10T21:40:58.075Z,92.40
2019-04-10T21:43:28.252Z,92.50
2019-04-10T21:45:57.857Z,92.50
2019-04-10T21:48:27.564Z,92.50
2019-04-10T21:50:58.128Z,92.10
2019-04-10T21:53:28.641Z,91.80
2019-04-10T21:55:59.938Z,91.70
2019-04-10T21:58:30.420Z,92.00
2019-04-10T22:01:07.635Z,91.80
2019-04-10T22:03:43.468Z,91.80
2019-04-10T22:06:32.132Z,91.80
2019-04-10T22:09:20.885Z,91.90
2019-04-10T22:11:58.455Z,91.70
2019-04-10T22:14:30.564Z,91.80
2019-04-10T22:17:02.348Z,91.60
2019-04-10T22:19:31.709Z,91.80
2019-04-10T22:22:02.855Z,91.70
2019-04-10T22:24:32.541Z,91.40
2019-04-10T22:27:03.062Z,91.40
2019-04-10T22:29:32.742Z,91.40
2019-04-10T22:32:02.356Z,91.00
2019-04-10T22:34:32.455Z,90.90
2019-04-10T22:37:04.261Z,91.00
2019-04-10T22:39:35.951Z,91.10
2019-04-10T22:42:07.415Z,91.10
2019-04-10T22:44:42.514Z,90.80
2019-04-10T22:47:11.343Z,90.70
2019-04-10T22:49:40.852Z,90.70
2019-04-10T22:52:10.942Z,90.70
2019-04-10T22:54:42.293Z,90.60
2019-04-10T22:57:12.816Z,90.50
2019-04-10T22:59:46.916Z,90.40
2019-04-10T23:02:19.313Z,90.70
2019-04-10T23:04:47.818Z,90.50
2019-04-10T23:07:17.787Z,90.30
2019-04-10T23:09:48.590Z,90.40
2019-04-10T23:12:20.706Z,90.90
2019-04-10T23:14:51.165Z,90.80
2019-04-10T23:17:24.419Z,90.70
2019-04-10T23:19:54.303Z,90.30
2019-04-10T23:22:25.200Z,90.50
2019-04-10T23:24:56.005Z,90.70
2019-04-10T23:27:26.749Z,90.70
2019-04-10T23:29:56.928Z,90.40
2019-04-10T23:32:27.034Z,90.30
2019-04-10T23:34:59.033Z,90.20
2019-04-10T23:37:30.976Z,90.50
2019-04-10T23:40:00.810Z,90.70
2019-04-10T23:42:30.562Z,90.90
2019-04-10T23:45:01.966Z,91.10
2019-04-10T23:47:34.089Z,91.00
2019-04-10T23:50:08.362Z,90.90
2019-04-10T23:52:38.161Z,90.90
2019-04-10T23:55:08.629Z,90.60
2019-04-10T23:57:41.238Z,90.30
